Time;durP1;ratioP1;P1;durP2;ratioP2;P2;SDS_P1;SDS_P2;PMS_P1;PMS_P2;Temp;Humidity;BMP_temperature;BMP_pressure;BME280_temperature;BME280_humidity;BME280_pressure;Samples;Min_cycle;Max_cycle;Signal;HPM_P1;HPM_P2
2023/05/29 00:00:20;;;;;;;13.38;7.07;;;486.80;2380.80;;;;;;5088661;28;20464;-73
2023/05/29 00:02:49;;;;;;;15.18;7.30;;;486.70;2380.80;;;;;;5093590;28;20024;-73
2023/05/29 00:05:16;;;;;;;16.50;8.02;;;486.70;2380.80;;;;;;5091307;28;20027;-76
2023/05/29 00:07:41;;;;;;;15.50;7.75;;;486.70;2380.80;;;;;;5089028;28;20459;-72
2023/05/29 00:10:09;;;;;;;18.45;8.25;;;486.70;2380.80;;;;;;5095553;28;20028;-72
2023/05/29 00:12:35;;;;;;;13.65;8.07;;;486.70;2380.80;;;;;;5095958;28;20542;-73
2023/05/29 00:15:03;;;;;;;13.82;7.40;;;486.80;2380.80;;;;;;5095328;28;20059;-73
2023/05/29 00:17:31;;;;;;;19.73;7.43;;;486.70;2380.80;;;;;;5095800;28;20032;-72
2023/05/29 00:19:58;;;;;;;20.35;8.02;;;486.70;2380.80;;;;;;5093564;28;20019;-73
2023/05/29 00:22:25;;;;;;;12.75;8.02;;;486.70;2380.80;;;;;;5088169;28;20038;-73
2023/05/29 00:24:51;;;;;;;22.52;8.82;;;486.70;2380.80;;;;;;5091111;28;20478;-78
2023/05/29 00:27:16;;;;;;;11.80;8.25;;;486.70;2380.80;;;;;;5090422;28;20016;-79
2023/05/29 00:29:42;;;;;;;11.48;8.93;;;486.70;2380.80;;;;;;5081990;28;20092;-72
2023/05/29 00:32:08;;;;;;;14.95;8.10;;;486.70;2380.80;;;;;;5088377;28;20020;-72
2023/05/29 00:34:33;;;;;;;18.25;7.72;;;486.80;2380.80;;;;;;5094568;28;20076;-73
2023/05/29 00:36:59;;;;;;;15.32;7.43;;;486.70;2380.80;;;;;;5094153;28;20377;-79
2023/05/29 00:39:25;;;;;;;21.83;8.80;;;486.70;2380.80;;;;;;5094087;28;20024;-72
2023/05/29 00:41:51;;;;;;;19.67;9.00;;;486.70;2380.80;;;;;;5087898;28;20012;-72
2023/05/29 00:44:20;;;;;;;25.65;8.60;;;486.80;2355.20;;;;;;5083508;28;20021;-78
2023/05/29 00:46:47;;;;;;;15.32;7.93;;;486.80;2380.80;;;;;;5092424;28;20024;-73
2023/05/29 00:49:14;;;;;;;21.00;8.95;;;486.80;2380.80;;;;;;5094038;28;20122;-72
2023/05/29 00:51:40;;;;;;;19.02;8.77;;;486.70;2380.80;;;;;;5093831;28;20020;-73
2023/05/29 00:54:09;;;;;;;16.00;8.98;;;486.70;2380.80;;;;;;5093680;28;20028;-73
2023/05/29 00:56:35;;;;;;;13.40;8.25;;;486.70;2380.80;;;;;;5086810;28;20089;-72
2023/05/29 00:59:01;;;;;;;23.52;8.68;;;486.80;2380.80;;;;;;5093599;28;20028;-73
2023/05/29 01:01:28;;;;;;;15.70;7.60;;;486.70;2380.80;;;;;;5087548;28;20020;-71
2023/05/29 01:03:57;;;;;;;14.45;7.78;;;486.70;2380.80;;;;;;5093411;28;20020;-72
2023/05/29 01:06:23;;;;;;;15.30;8.05;;;486.70;2380.80;;;;;;5082789;28;20016;-73
2023/05/29 01:08:49;;;;;;;12.15;7.93;;;486.70;2380.80;;;;;;5083168;28;20016;-73
2023/05/29 01:11:27;;;;;;;27.88;9.38;;;486.60;2380.80;;;;;;5093431;28;20020;-73
2023/05/29 01:13:56;;;;;;;14.85;8.68;;;486.50;2380.80;;;;;;5088365;28;20445;-73
2023/05/29 01:16:34;;;;;;;16.45;9.00;;;486.50;2304.00;;;;;;5088586;28;20012;-72
2023/05/29 01:19:26;;;;;;;19.38;8.80;;;486.50;2380.80;;;;;;5093549;28;20017;-73
2023/05/29 01:21:59;;;;;;;13.63;9.88;;;486.50;2252.80;;;;;;5079006;28;20057;-73
2023/05/29 01:24:54;;;;;;;16.13;9.57;;;486.50;2150.40;;;;;;5093332;28;20032;-73
2023/05/29 01:27:25;;;;;;;14.68;8.52;;;486.40;2329.60;;;;;;5091903;28;20099;-74
2023/05/29 01:29:53;;;;;;;12.68;8.73;;;486.40;2380.80;;;;;;5090747;28;20097;-73
2023/05/29 01:32:20;;;;;;;15.85;10.15;;;486.40;2380.80;;;;;;5086649;28;20382;-79
2023/05/29 01:34:45;;;;;;;21.13;10.65;;;486.40;2380.80;;;;;;5053392;28;1134990;-73
2023/05/29 01:37:11;;;;;;;17.40;8.90;;;486.40;2380.80;;;;;;5087903;28;20027;-73
2023/05/29 01:39:37;;;;;;;18.40;9.27;;;486.50;2380.80;;;;;;5094272;28;20492;-78
2023/05/29 01:42:04;;;;;;;14.63;9.15;;;486.50;2380.80;;;;;;5088821;28;20727;-75
2023/05/29 01:44:31;;;;;;;16.17;8.90;;;486.40;2201.60;;;;;;5087282;28;20111;-74
2023/05/29 01:46:57;;;;;;;16.85;9.48;;;486.40;2380.80;;;;;;5093955;28;20088;-73
2023/05/29 01:49:27;;;;;;;19.73;8.70;;;486.40;2355.20;;;;;;5093862;28;20081;-73
2023/05/29 01:51:53;;;;;;;15.70;8.85;;;486.50;2380.80;;;;;;5092914;28;20528;-73
2023/05/29 01:54:19;;;;;;;15.35;8.73;;;486.50;2176.00;;;;;;5093106;28;20032;-80
2023/05/29 01:56:46;;;;;;;18.88;10.25;;;486.40;2380.80;;;;;;5093768;28;20489;-73
2023/05/29 01:59:12;;;;;;;21.20;9.82;;;486.40;2176.00;;;;;;5084755;28;20412;-73
2023/05/29 02:01:41;;;;;;;19.17;10.05;;;486.50;2124.80;;;;;;5090157;28;20050;-81
2023/05/29 02:04:07;;;;;;;13.98;9.57;;;486.50;2380.80;;;;;;5093683;28;20036;-73
2023/05/29 02:06:33;;;;;;;22.95;11.45;;;486.40;1996.80;;;;;;5091034;28;20119;-73
2023/05/29 02:08:59;;;;;;;15.70;10.13;;;486.40;2380.80;;;;;;5093773;28;20537;-74
2023/05/29 02:11:26;;;;;;;24.40;11.68;;;486.50;2278.40;;;;;;5088206;28;20103;-73
2023/05/29 02:13:52;;;;;;;19.70;12.05;;;486.50;2022.40;;;;;;5089715;28;20028;-74
2023/05/29 02:16:20;;;;;;;16.02;11.52;;;486.50;2380.80;;;;;;5090599;28;20027;-72
2023/05/29 02:18:48;;;;;;;20.70;11.95;;;486.50;2380.80;;;;;;5093344;28;20071;-72
2023/05/29 02:21:14;;;;;;;16.60;11.68;;;486.40;2380.80;;;;;;5090527;28;20489;-72
2023/05/29 02:23:40;;;;;;;20.42;11.55;;;486.40;2380.80;;;;;;5093359;28;20016;-72
2023/05/29 02:26:06;;;;;;;21.67;12.32;;;461.70;2176.00;;;;;;5093198;28;20020;-73
2023/05/29 02:28:31;;;;;;;24.08;13.43;;;486.40;2329.60;;;;;;5092983;28;20402;-72
2023/05/29 02:30:57;;;;;;;27.98;13.95;;;486.40;2380.80;;;;;;5093088;28;20024;-73
2023/05/29 02:33:23;;;;;;;20.80;13.77;;;486.50;2380.80;;;;;;5093407;28;20067;-73
2023/05/29 02:35:48;;;;;;;23.45;12.82;;;486.50;2278.40;;;;;;5087581;28;20052;-72
2023/05/29 02:38:15;;;;;;;21.90;13.13;;;486.40;1996.80;;;;;;5078439;28;20516;-72
2023/05/29 02:40:40;;;;;;;21.67;12.65;;;486.40;2380.80;;;;;;5082737;28;20514;-72
2023/05/29 02:43:07;;;;;;;24.05;14.40;;;486.40;2380.80;;;;;;5079588;28;20109;-80
2023/05/29 02:45:33;;;;;;;23.90;13.07;;;461.70;2380.80;;;;;;5072407;28;20017;-73
2023/05/29 02:47:59;;;;;;;23.73;13.63;;;461.70;2380.80;;;;;;5073948;28;20478;-72
2023/05/29 02:50:25;;;;;;;21.73;13.30;;;461.70;2380.80;;;;;;5081194;28;20106;-80
2023/05/29 02:52:50;;;;;;;20.13;13.93;;;461.70;2380.80;;;;;;5087344;28;20101;-79
2023/05/29 02:55:16;;;;;;;20.38;13.25;;;461.70;2380.80;;;;;;5078009;28;20024;-73
2023/05/29 02:57:42;;;;;;;23.08;13.77;;;486.40;2380.80;;;;;;5073991;28;20373;-73
2023/05/29 03:00:08;;;;;;;21.25;13.35;;;486.40;2380.80;;;;;;5076543;28;20032;-80
2023/05/29 03:02:35;;;;;;;22.17;12.82;;;486.40;2380.80;;;;;;5074682;28;20044;-73
2023/05/29 03:05:01;;;;;;;25.23;13.73;;;461.70;2380.80;;;;;;5077260;28;20265;-72
2023/05/29 03:07:26;;;;;;;20.67;12.07;;;461.70;2380.80;;;;;;5071857;28;20515;-73
2023/05/29 03:09:53;;;;;;;21.90;13.48;;;461.70;2380.80;;;;;;5077390;28;20024;-73
2023/05/29 03:12:19;;;;;;;29.30;14.32;;;486.40;2380.80;;;;;;5076993;28;20020;-73
2023/05/29 03:14:45;;;;;;;22.05;13.50;;;486.40;2380.80;;;;;;5071149;28;20136;-73
2023/05/29 03:17:11;;;;;;;27.13;13.65;;;486.40;2380.80;;;;;;5071716;28;20073;-75
2023/05/29 03:19:38;;;;;;;24.25;13.35;;;486.40;2380.80;;;;;;5077051;28;20498;-73
2023/05/29 03:22:04;;;;;;;26.67;13.82;;;486.40;2380.80;;;;;;5077321;28;20012;-72
2023/05/29 03:24:30;;;;;;;28.38;13.10;;;461.70;2380.80;;;;;;5074706;28;20028;-73
2023/05/29 03:26:55;;;;;;;23.60;13.82;;;486.40;2380.80;;;;;;5071483;28;20056;-73
2023/05/29 03:29:21;;;;;;;20.42;13.70;;;486.40;2380.80;;;;;;5077222;28;20103;-73
2023/05/29 03:31:47;;;;;;;24.55;13.30;;;486.40;2380.80;;;;;;5074207;28;20031;-72
2023/05/29 03:34:13;;;;;;;22.77;12.50;;;486.40;2380.80;;;;;;5080001;28;20430;-72
2023/05/29 03:36:39;;;;;;;23.50;13.10;;;486.40;2380.80;;;;;;5091373;28;20462;-72
2023/05/29 03:39:06;;;;;;;20.27;12.18;;;486.40;2380.80;;;;;;5091900;28;20470;-72
2023/05/29 03:41:32;;;;;;;23.42;12.52;;;486.40;2380.80;;;;;;5091790;28;20024;-72
2023/05/29 03:43:57;;;;;;;27.70;12.73;;;486.40;2380.80;;;;;;5083159;28;20027;-76
2023/05/29 03:46:23;;;;;;;33.85;13.48;;;486.60;2380.80;;;;;;5091740;28;20055;-73
2023/05/29 03:48:49;;;;;;;23.27;13.48;;;486.60;2380.80;;;;;;5091596;28;20029;-73
2023/05/29 03:51:15;;;;;;;23.70;12.57;;;486.60;2380.80;;;;;;5091609;28;20023;-73
2023/05/29 03:53:40;;;;;;;19.50;12.52;;;486.50;2227.20;;;;;;5088712;28;20024;-73
2023/05/29 03:56:06;;;;;;;24.50;12.20;;;486.50;2380.80;;;;;;5091600;28;20012;-72
2023/05/29 03:58:32;;;;;;;18.30;12.32;;;486.50;2380.80;;;;;;5091630;28;20031;-75
2023/05/29 04:00:58;;;;;;;19.83;12.85;;;486.40;2380.80;;;;;;5091454;28;20016;-74
2023/05/29 04:03:23;;;;;;;25.00;13.45;;;486.40;2380.80;;;;;;5091543;28;20028;-80
2023/05/29 04:05:49;;;;;;;25.13;14.00;;;486.50;2380.80;;;;;;5091376;28;20020;-73
2023/05/29 04:08:15;;;;;;;25.27;13.05;;;486.50;2380.80;;;;;;5091550;28;20027;-72
2023/05/29 04:10:41;;;;;;;27.98;13.25;;;486.50;2380.80;;;;;;5091243;28;20096;-73
2023/05/29 04:13:07;;;;;;;21.85;13.00;;;486.50;2380.80;;;;;;5091094;28;20058;-73
2023/05/29 04:15:36;;;;;;;25.52;13.13;;;486.50;2380.80;;;;;;5091324;28;20048;-72
2023/05/29 04:18:01;;;;;;;30.25;13.63;;;486.50;2380.80;;;;;;5093496;28;20032;-72
2023/05/29 04:20:27;;;;;;;24.17;14.27;;;486.50;2380.80;;;;;;5094994;28;20020;-72
2023/05/29 04:22:53;;;;;;;21.52;11.95;;;486.50;2380.80;;;;;;5095019;28;20020;-73
2023/05/29 04:25:18;;;;;;;22.60;11.88;;;486.50;2380.80;;;;;;5094895;28;20488;-74
2023/05/29 04:27:48;;;;;;;20.42;11.93;;;486.60;2380.80;;;;;;5094983;28;20099;-73
2023/05/29 04:30:15;;;;;;;29.05;13.73;;;486.60;2380.80;;;;;;5095014;28;20078;-72
2023/05/29 04:32:41;;;;;;;23.60;12.93;;;486.60;2380.80;;;;;;5093843;28;20045;-71
2023/05/29 04:35:07;;;;;;;19.02;12.45;;;;;;;;;;5100048;28;20047;-73
2023/05/29 04:37:38;;;;;;;24.75;11.82;;;486.80;2380.80;;;;;;5086747;28;20394;-73
2023/05/29 04:40:09;;;;;;;33.97;13.43;;;486.70;2380.80;;;;;;5105994;28;20039;-77
2023/05/29 04:42:39;;;;;;;18.42;11.70;;;486.70;2380.80;;;;;;5108234;28;20049;-74
2023/05/29 04:45:05;;;;;;;19.83;12.60;;;486.70;2380.80;;;;;;5100908;28;20031;-77
2023/05/29 04:47:32;;;;;;;24.45;13.35;;;486.70;2380.80;;;;;;5105474;28;20047;-72
2023/05/29 04:50:01;;;;;;;30.50;12.27;;;486.70;2380.80;;;;;;5105113;28;20047;-72
2023/05/29 04:52:27;;;;;;;25.42;12.00;;;486.70;2380.80;;;;;;5100139;28;20020;-72
2023/05/29 04:54:57;;;;;;;19.35;12.40;;;486.80;2380.80;;;;;;5082760;28;20034;-72
2023/05/29 04:57:22;;;;;;;22.73;11.90;;;486.80;2380.80;;;;;;5100969;28;20051;-71
2023/05/29 04:59:48;;;;;;;20.77;11.85;;;486.80;2380.80;;;;;;5102944;28;20478;-72
2023/05/29 05:02:14;;;;;;;27.33;12.27;;;486.80;2380.80;;;;;;5087195;28;20047;-73
2023/05/29 05:04:40;;;;;;;24.90;11.30;;;487.00;2380.80;;;;;;5088727;28;20024;-73
2023/05/29 05:07:06;;;;;;;25.60;11.52;;;487.00;2380.80;;;;;;5100552;28;20032;-73
2023/05/29 05:09:31;;;;;;;22.13;11.48;;;487.00;2380.80;;;;;;5083750;28;20376;-74
2023/05/29 05:11:58;;;;;;;13.32;10.00;;;;;;;;;;5090902;28;20032;-74
2023/05/29 05:14:24;;;;;;;22.00;11.63;;;;;;;;;;5098314;28;20032;-74
2023/05/29 05:16:50;;;;;;;19.88;10.23;;;487.30;2380.80;;;;;;5106968;28;20020;-74
2023/05/29 05:19:16;;;;;;;20.52;10.73;;;487.20;2380.80;;;;;;5103891;28;20027;-74
2023/05/29 05:21:42;;;;;;;21.50;11.20;;;487.30;2380.80;;;;;;5086744;28;20020;-74
2023/05/29 05:24:07;;;;;;;17.65;10.02;;;512.00;2227.20;;;;;;5096025;28;20032;-73
2023/05/29 05:26:33;;;;;;;21.60;10.65;;;487.30;2380.80;;;;;;5099078;28;20017;-72
2023/05/29 05:28:59;;;;;;;20.65;10.75;;;512.00;2380.80;;;;;;5100073;28;20508;-72
2023/05/29 05:31:25;;;;;;;21.58;11.00;;;512.10;2380.80;;;;;;5101086;28;20462;-73
2023/05/29 05:33:51;;;;;;;17.42;10.48;;;512.10;2380.80;;;;;;5103847;28;20686;-71
2023/05/29 05:36:16;;;;;;;17.27;9.73;;;512.30;2380.80;;;;;;5102600;28;20032;-72
2023/05/29 05:38:42;;;;;;;16.13;10.13;;;512.30;2380.80;;;;;;5102577;28;20030;-72
2023/05/29 05:41:08;;;;;;;18.50;11.30;;;512.20;2380.80;;;;;;5099289;28;20557;-74
2023/05/29 05:43:33;;;;;;;18.17;12.48;;;512.30;2380.80;;;;;;5098603;28;20020;-73
2023/05/29 05:45:59;;;;;;;21.88;11.27;;;512.30;2380.80;;;;;;5106528;28;20035;-72
2023/05/29 05:48:25;;;;;;;20.70;11.98;;;512.30;2380.80;;;;;;5101147;28;20033;-72
2023/05/29 05:50:51;;;;;;;22.27;9.82;;;;;;;;;;5104534;28;20429;-72
2023/05/29 05:53:17;;;;;;;20.30;10.90;;;;;;;;;;5100530;28;20035;-73
2023/05/29 05:55:44;;;;;;;20.08;9.88;;;;;;;;;;5103817;28;20024;-72
2023/05/29 05:58:09;;;;;;;15.88;10.68;;;512.90;2380.80;;;;;;5101246;28;20023;-74
2023/05/29 06:00:35;;;;;;;17.65;9.55;;;512.90;2380.80;;;;;;5096988;28;20020;-71
2023/05/29 06:03:03;;;;;;;21.58;10.80;;;512.90;2380.80;;;;;;5095470;28;20394;-73
2023/05/29 06:05:29;;;;;;;14.85;8.85;;;512.80;2380.80;;;;;;5098805;28;20024;-72
2023/05/29 06:07:55;;;;;;;15.45;9.13;;;512.90;2380.80;;;;;;5101013;28;20094;-73
2023/05/29 06:10:20;;;;;;;22.90;9.57;;;512.90;2380.80;;;;;;5101376;28;20028;-71
2023/05/29 06:12:46;;;;;;;19.77;9.30;;;512.80;2380.80;;;;;;5102997;28;20103;-72
2023/05/29 06:15:12;;;;;;;14.55;7.82;;;512.80;2380.80;;;;;;5103711;28;20036;-72
2023/05/29 06:17:39;;;;;;;15.75;7.75;;;537.60;2406.40;;;;;;5103374;28;20431;-72
2023/05/29 06:20:10;;;;;;;14.10;9.18;;;537.70;2406.40;;;;;;5103429;28;20059;-72
2023/05/29 06:22:36;;;;;;;18.92;9.15;;;537.70;2406.40;;;;;;5099212;28;20066;-71
2023/05/29 06:25:01;;;;;;;16.25;8.65;;;537.80;2406.40;;;;;;5110603;28;20489;-73
2023/05/29 06:27:27;;;;;;;12.98;8.40;;;537.80;2406.40;;;;;;5097546;28;20027;-72
2023/05/29 06:29:53;;;;;;;18.52;8.50;;;537.80;2406.40;;;;;;5094261;28;20095;-72
2023/05/29 06:32:18;;;;;;;15.68;8.80;;;537.80;2406.40;;;;;;5099130;28;20039;-72
2023/05/29 06:34:44;;;;;;;14.80;8.57;;;537.90;2406.40;;;;;;5097806;28;20402;-72
2023/05/29 06:37:10;;;;;;;24.73;9.65;;;538.00;2406.40;;;;;;5102739;28;20031;-75
2023/05/29 06:39:36;;;;;;;17.25;10.68;;;538.00;2406.40;;;;;;5103146;28;20035;-71
2023/05/29 06:42:02;;;;;;;15.02;8.90;;;538.10;2406.40;;;;;;5099702;28;20039;-71
2023/05/29 06:44:27;;;;;;;13.82;8.65;;;538.20;2406.40;;;;;;5077447;28;20455;-71
2023/05/29 06:46:53;;;;;;;15.82;7.47;;;538.20;2406.40;;;;;;5097479;28;20107;-71
2023/05/29 06:49:19;;;;;;;14.02;8.82;;;538.20;2406.40;;;;;;5104906;28;20470;-73
2023/05/29 06:51:44;;;;;;;15.65;8.10;;;538.50;2406.40;;;;;;5083908;28;20012;-71
2023/05/29 06:54:10;;;;;;;17.00;7.72;;;538.40;2406.40;;;;;;5093371;28;20120;-71
2023/05/29 06:56:36;;;;;;;16.23;6.82;;;538.40;2406.40;;;;;;5096434;28;20095;-71
2023/05/29 06:59:01;;;;;;;11.38;7.55;;;538.50;2406.40;;;;;;5098273;28;20032;-70
2023/05/29 07:01:27;;;;;;;16.33;7.70;;;538.50;2406.40;;;;;;5094004;28;20020;-71
2023/05/29 07:03:53;;;;;;;11.88;7.20;;;538.50;2406.40;;;;;;5079784;28;20157;-73
2023/05/29 07:06:19;;;;;;;13.32;8.05;;;563.30;2432.00;;;;;;5097656;28;20020;-72
2023/05/29 07:08:45;;;;;;;11.20;7.95;;;563.60;2432.00;;;;;;5102525;28;20437;-72
2023/05/29 07:11:11;;;;;;;10.68;6.60;;;563.80;2432.00;;;;;;5106196;28;20047;-73
2023/05/29 07:13:36;;;;;;;14.90;7.50;;;564.00;2432.00;;;;;;5100149;28;20102;-73
2023/05/29 07:16:02;;;;;;;12.10;7.05;;;564.00;2432.00;;;;;;5100539;28;20030;-73
2023/05/29 07:18:28;;;;;;;19.77;7.70;;;564.10;2432.00;;;;;;5101151;28;20103;-72
2023/05/29 07:20:56;;;;;;;13.60;7.00;;;564.10;2432.00;;;;;;5104567;28;20016;-72
2023/05/29 07:23:21;;;;;;;14.32;7.20;;;588.80;2432.00;;;;;;5093049;28;20138;-72
2023/05/29 07:25:47;;;;;;;14.50;6.47;;;564.10;2432.00;;;;;;5098026;28;20114;-73
2023/05/29 07:28:15;;;;;;;16.75;6.75;;;564.10;2432.00;;;;;;5104344;28;20073;-73
2023/05/29 07:30:41;;;;;;;10.93;6.18;;;564.10;2432.00;;;;;;5094324;28;20020;-72
2023/05/29 07:33:07;;;;;;;12.10;6.15;;;564.00;2432.00;;;;;;5097185;28;20020;-72
2023/05/29 07:35:33;;;;;;;11.30;5.75;;;564.00;2432.00;;;;;;5098177;28;20089;-72
2023/05/29 07:37:59;;;;;;;9.10;6.05;;;564.00;2432.00;;;;;;5095081;28;20104;-73
2023/05/29 07:40:26;;;;;;;7.10;4.93;;;564.00;2432.00;;;;;;5094451;28;20024;-72
2023/05/29 07:42:51;;;;;;;8.35;5.30;;;563.70;2432.00;;;;;;5096556;28;20024;-72
2023/05/29 07:45:17;;;;;;;9.18;5.13;;;563.80;2432.00;;;;;;5108010;28;20095;-73
2023/05/29 07:47:43;;;;;;;16.88;6.63;;;563.80;2432.00;;;;;;5105409;28;20028;-72
2023/05/29 07:50:10;;;;;;;10.02;5.75;;;563.80;2432.00;;;;;;5097624;28;20038;-73
2023/05/29 07:52:36;;;;;;;9.00;5.95;;;563.80;2432.00;;;;;;5098964;28;20038;-72
2023/05/29 07:55:01;;;;;;;14.10;5.85;;;563.90;2432.00;;;;;;5099742;28;20048;-72
2023/05/29 07:57:28;;;;;;;9.10;5.85;;;563.90;2432.00;;;;;;5109026;28;20019;-72
2023/05/29 07:59:54;;;;;;;8.40;5.63;;;563.90;2432.00;;;;;;5099426;28;20028;-78
2023/05/29 08:02:20;;;;;;;10.98;5.43;;;563.90;2432.00;;;;;;5080568;28;20023;-72
2023/05/29 08:04:46;;;;;;;7.95;4.97;;;563.90;2432.00;;;;;;5102434;28;20496;-74
2023/05/29 08:07:12;;;;;;;8.73;5.78;;;563.90;2432.00;;;;;;5083169;28;20032;-73
2023/05/29 08:09:38;;;;;;;12.90;5.80;;;563.90;2432.00;;;;;;5104016;28;20024;-73
2023/05/29 08:12:05;;;;;;;13.98;5.43;;;564.00;2432.00;;;;;;5106146;28;20024;-74
2023/05/29 08:14:31;;;;;;;8.25;5.35;;;564.10;2432.00;;;;;;5101526;28;20154;-74
2023/05/29 08:16:56;;;;;;;9.25;5.47;;;588.80;2432.00;;;;;;5100725;28;20036;-73
2023/05/29 08:19:23;;;;;;;8.57;5.50;;;589.00;2432.00;;;;;;5103807;28;20035;-73
2023/05/29 08:21:49;;;;;;;8.70;5.07;;;589.10;2432.00;;;;;;5104797;28;20099;-72
2023/05/29 08:24:15;;;;;;;9.73;5.50;;;589.10;2432.00;;;;;;5097483;28;20525;-73
2023/05/29 08:26:41;;;;;;;12.35;5.47;;;589.30;2432.00;;;;;;5105074;28;20041;-71
2023/05/29 08:29:06;;;;;;;11.63;6.10;;;589.30;2432.00;;;;;;5103288;28;20036;-72
2023/05/29 08:31:32;;;;;;;7.25;5.00;;;589.50;2432.00;;;;;;5098025;28;20069;-72
2023/05/29 08:33:58;;;;;;;8.93;4.80;;;589.60;2432.00;;;;;;5098712;28;20044;-76
2023/05/29 08:36:25;;;;;;;9.05;5.07;;;589.70;2432.00;;;;;;5105367;28;20024;-72
2023/05/29 08:38:51;;;;;;;7.88;4.80;;;589.70;2432.00;;;;;;5102690;28;20028;-72
2023/05/29 08:41:58;;;;;;;7.55;4.85;;;589.70;2432.00;;;;;;5102190;28;20503;-73
2023/05/29 08:44:24;;;;;;;;;;;614.50;2432.00;;;;;;5094438;28;20508;-74
2023/05/29 08:46:55;;;;;;;7.47;5.07;;;614.60;2432.00;;;;;;5106942;28;19911;-74
2023/05/29 08:49:22;;;;;;;7.75;4.65;;;614.70;2432.00;;;;;;5098535;28;20103;-74
2023/05/29 08:51:50;;;;;;;7.75;4.80;;;;;;;;;;5098327;28;20023;-74
2023/05/29 08:54:16;;;;;;;6.75;4.75;;;614.90;2432.00;;;;;;5097755;28;20085;-74
2023/05/29 08:56:43;;;;;;;10.18;4.78;;;615.00;2432.00;;;;;;5101236;28;20065;-74
2023/05/29 08:59:09;;;;;;;7.93;4.15;;;;;;;;;;5098526;28;20032;-74
2023/05/29 09:01:36;;;;;;;7.45;5.13;;;;;;;;;;5099614;28;20026;-74
2023/05/29 09:04:02;;;;;;;13.13;4.50;;;;;;;;;;5094817;28;20916;-74
2023/05/29 09:06:28;;;;;;;9.15;7.30;;;640.10;2432.00;;;;;;5100007;28;20509;-74
2023/05/29 09:08:54;;;;;;;7.95;5.13;;;640.00;2432.00;;;;;;5098445;28;20113;-74
2023/05/29 09:11:21;;;;;;;8.65;4.97;;;640.00;2432.00;;;;;;5101879;28;20062;-74
2023/05/29 09:13:47;;;;;;;8.77;4.95;;;640.00;2432.00;;;;;;5080330;28;20462;-74
2023/05/29 09:16:15;;;;;;;7.75;4.78;;;640.00;2432.00;;;;;;5100273;28;20078;-75
2023/05/29 09:18:45;;;;;;;7.85;5.13;;;640.10;2432.00;;;;;;5100010;28;20089;-75
2023/05/29 09:21:24;;;;;;;9.57;5.40;;;640.10;2432.00;;;;;;5093911;28;20035;-75
2023/05/29 09:23:53;;;;;;;6.80;4.80;;;640.10;2432.00;;;;;;5092043;28;20039;-74
2023/05/29 09:26:23;;;;;;;6.18;5.15;;;640.20;2432.00;;;;;;5097827;28;20107;-74
2023/05/29 09:28:48;;;;;;;6.75;4.78;;;640.00;2432.00;;;;;;5101528;28;20020;-74
2023/05/29 09:31:16;;;;;;;8.85;4.63;;;615.30;2432.00;;;;;;5096944;28;20104;-74
2023/05/29 09:33:50;;;;;;;9.23;5.38;;;615.20;2432.00;;;;;;5104168;28;20431;-74
2023/05/29 09:36:22;;;;;;;6.18;4.68;;;615.10;2432.00;;;;;;5098931;28;20024;-76
2023/05/29 09:38:49;;;;;;;7.00;5.03;;;614.80;2432.00;;;;;;5102121;28;20038;-74
2023/05/29 09:41:24;;;;;;;10.05;5.43;;;615.00;2432.00;;;;;;5095893;28;20024;-73
2023/05/29 09:43:50;;;;;;;7.35;5.82;;;615.00;2432.00;;;;;;5100001;28;20032;-73
2023/05/29 09:46:20;;;;;;;11.40;5.35;;;615.10;2432.00;;;;;;5103574;28;20030;-73
2023/05/29 09:48:46;;;;;;;10.32;4.82;;;615.00;2432.00;;;;;;5107015;28;20020;-73
2023/05/29 09:51:23;;;;;;;10.65;5.63;;;614.80;2432.00;;;;;;5103978;28;20081;-75
2023/05/29 09:53:53;;;;;;;6.88;4.30;;;614.80;2432.00;;;;;;5104506;28;20028;-74
2023/05/29 09:56:24;;;;;;;10.02;5.72;;;615.00;2432.00;;;;;;5097081;28;20058;-74
2023/05/29 09:58:53;;;;;;;9.20;5.93;;;615.00;2432.00;;;;;;5096488;28;20477;-74
2023/05/29 10:01:19;;;;;;;20.77;5.72;;;615.00;2432.00;;;;;;5094231;28;20180;-73
2023/05/29 10:03:45;;;;;;;14.00;6.05;;;615.00;2432.00;;;;;;5099153;28;20036;-76
2023/05/29 10:06:18;;;;;;;9.18;5.65;;;615.10;2432.00;;;;;;5096934;28;20028;-74
2023/05/29 10:08:50;;;;;;;7.05;5.43;;;640.00;2432.00;;;;;;5096157;28;20028;-73
2023/05/29 10:11:24;;;;;;;6.65;5.32;;;615.30;2432.00;;;;;;5095379;28;20478;-72
2023/05/29 10:13:52;;;;;;;6.00;5.00;;;640.00;2432.00;;;;;;5102520;28;20043;-71
2023/05/29 10:16:21;;;;;;;7.63;5.75;;;640.00;2432.00;;;;;;5080272;28;20432;-72
2023/05/29 10:18:55;;;;;;;10.77;5.60;;;;;;;;;;5092242;28;20500;-74
2023/05/29 10:21:22;;;;;;;9.13;5.32;;;640.70;2355.20;;;;;;5096278;28;20530;-71
2023/05/29 10:23:50;;;;;;;6.50;5.35;;;640.60;2176.00;;;;;;5101525;28;20110;-71
2023/05/29 10:26:23;;;;;;;13.68;5.90;;;640.70;2252.80;;;;;;5097062;28;20028;-73
2023/05/29 10:29:15;;;;;;;10.38;5.90;;;640.90;2201.60;;;;;;5099073;28;20020;-73
2023/05/29 10:31:53;;;;;;;11.00;6.13;;;665.60;2432.00;;;;;;5097758;28;20024;-78
2023/05/29 10:34:38;;;;;;;9.32;5.47;;;665.70;2201.60;;;;;;5098684;28;20509;-72
2023/05/29 10:37:17;;;;;;;15.43;6.82;;;666.20;2124.80;;;;;;5104767;28;20053;-73
2023/05/29 10:39:42;;;;;;;7.93;5.63;;;666.30;2022.40;;;;;;5102009;28;20028;-74
2023/05/29 10:42:45;;;;;;;10.82;6.18;;;666.50;1996.80;;;;;;5102425;28;20035;-73
2023/05/29 10:45:31;;;;;;;9.57;6.25;;;666.50;2073.60;;;;;;5098707;28;20032;-72
2023/05/29 10:48:12;;;;;;;7.28;5.43;;;691.40;1971.20;;;;;;5107012;28;20090;-73
2023/05/29 10:50:47;;;;;;;8.80;6.00;;;691.30;1945.60;;;;;;5092959;28;20024;-73
2023/05/29 10:53:22;;;;;;;7.28;5.28;;;691.40;2022.40;;;;;;5100424;28;20107;-73
2023/05/29 10:55:48;;;;;;;8.43;5.55;;;691.40;1945.60;;;;;;5098795;28;20104;-73
2023/05/29 10:58:18;;;;;;;10.35;6.05;;;691.70;1817.60;;;;;;5100014;28;20020;-74
2023/05/29 11:00:48;;;;;;;16.25;5.80;;;691.80;1843.20;;;;;;5095284;28;20027;-73
2023/05/29 11:03:22;;;;;;;9.27;5.38;;;691.90;1894.40;;;;;;5101791;28;20047;-71
2023/05/29 11:06:05;;;;;;;16.83;5.90;;;691.70;1817.60;;;;;;5102913;28;20043;-72
2023/05/29 11:08:46;;;;;;;9.25;5.22;;;691.90;1996.80;;;;;;5097230;28;20475;-73
2023/05/29 11:11:13;;;;;;;10.02;5.55;;;692.00;1817.60;;;;;;5102166;28;20027;-75
2023/05/29 11:13:44;;;;;;;8.75;5.30;;;692.00;1766.40;;;;;;5099358;28;20089;-73
2023/05/29 11:16:25;;;;;;;9.15;5.57;;;716.90;1817.60;;;;;;5099238;28;20035;-73
2023/05/29 11:18:52;;;;;;;8.20;5.30;;;717.10;1766.40;;;;;;5102380;28;20285;-73
2023/05/29 11:21:39;;;;;;;7.13;4.90;;;717.20;1664.00;;;;;;5096989;28;20430;-73
2023/05/29 11:24:06;;;;;;;11.70;4.95;;;717.20;1664.00;;;;;;5093656;28;20490;-74
2023/05/29 11:26:32;;;;;;;7.07;5.32;;;717.10;1664.00;;;;;;5103071;28;20100;-74
2023/05/29 11:29:04;;;;;;;9.45;5.47;;;716.90;1792.00;;;;;;5098789;28;20024;-73
2023/05/29 11:31:34;;;;;;;9.50;5.57;;;717.20;1817.60;;;;;;5099597;28;20059;-74
2023/05/29 11:34:03;;;;;;;9.55;5.85;;;717.50;1792.00;;;;;;5098047;28;20078;-73
2023/05/29 11:36:31;;;;;;;7.10;4.93;;;717.60;1740.80;;;;;;5105040;28;20378;-74
2023/05/29 11:38:56;;;;;;;9.68;6.03;;;717.50;1689.60;;;;;;5102441;28;20031;-74
2023/05/29 11:41:22;;;;;;;7.60;5.10;;;717.50;1715.20;;;;;;5099611;28;20016;-74
2023/05/29 11:44:03;;;;;;;10.50;6.00;;;717.50;1638.40;;;;;;5099133;28;20051;-74
2023/05/29 11:46:32;;;;;;;9.05;5.50;;;717.50;1715.20;;;;;;5098507;28;20038;-72
2023/05/29 11:48:59;;;;;;;7.35;5.10;;;717.70;1715.20;;;;;;5108859;28;20028;-74
2023/05/29 11:51:25;;;;;;;11.65;5.95;;;717.70;1612.80;;;;;;5102872;28;20024;-73
2023/05/29 11:53:52;;;;;;;8.23;5.55;;;717.70;1587.20;;;;;;5096306;28;20028;-72
2023/05/29 11:56:19;;;;;;;13.32;5.40;;;717.60;1561.60;;;;;;5107309;28;20032;-73
2023/05/29 11:58:45;;;;;;;5.93;4.90;;;717.50;1612.80;;;;;;5101065;28;20050;-73
2023/05/29 12:01:11;;;;;;;6.55;4.70;;;717.70;1587.20;;;;;;5097319;28;20032;-72
2023/05/29 12:03:43;;;;;;;8.32;5.43;;;717.40;1587.20;;;;;;5105829;28;20031;-73
2023/05/29 12:06:10;;;;;;;7.60;5.53;;;717.20;1689.60;;;;;;5102463;28;20028;-72
2023/05/29 12:08:37;;;;;;;8.75;4.82;;;717.30;1740.80;;;;;;5101009;28;20093;-73
2023/05/29 12:11:03;;;;;;;8.07;5.22;;;717.30;1740.80;;;;;;5104691;28;20393;-73
2023/05/29 12:13:29;;;;;;;9.10;5.20;;;717.30;1612.80;;;;;;5107526;28;20020;-74
2023/05/29 12:15:58;;;;;;;11.48;6.05;;;717.20;1689.60;;;;;;5101435;28;20473;-74